Time;durP1;ratioP1;P1;durP2;ratioP2;P2;SDS_P1;SDS_P2;PMS_P1;PMS_P2;Temp;Humidity;BMP_temperature;BMP_pressure;BME280_temperature;BME280_humidity;BME280_pressure;Samples;Min_cycle;Max_cycle;Signal;HPM_P1;HPM_P2
2021/10/15 00:01:06;;;;;;;16.92;10.48;;;15.90;99.90;;;16.25;86.67;101578.81;4842610;29;20050;-71
2021/10/15 00:03:35;;;;;;;21.85;10.68;;;15.90;99.90;;;16.22;86.88;101571.72;4842318;29;20050;-71
2021/10/15 00:06:04;;;;;;;25.05;11.85;;;15.90;99.90;;;16.27;86.64;101555.66;4842492;29;20073;-71
2021/10/15 00:08:33;;;;;;;19.17;10.98;;;15.90;99.90;;;16.22;86.63;101552.16;4841345;29;20416;-71
2021/10/15 00:11:02;;;;;;;19.55;11.02;;;15.80;99.90;;;16.21;86.98;101550.41;4842273;29;20074;-71
2021/10/15 00:13:30;;;;;;;17.92;9.80;;;15.80;99.90;;;16.29;86.81;101548.50;4842113;29;20049;-71
2021/10/15 00:15:58;;;;;;;23.15;11.38;;;15.90;99.90;;;16.20;86.77;101535.31;4842228;29;20133;-71
2021/10/15 00:18:27;;;;;;;18.75;10.25;;;15.90;99.90;;;16.31;86.75;101551.13;4842230;29;20102;-71
2021/10/15 00:20:56;;;;;;;23.17;10.18;;;15.90;99.90;;;16.28;86.61;101554.72;4842526;29;20400;-71
2021/10/15 00:23:25;;;;;;;23.33;10.65;;;15.90;99.90;;;16.35;86.56;101560.84;4842170;29;20049;-71
2021/10/15 00:25:54;;;;;;;18.02;10.38;;;15.90;99.90;;;16.25;86.59;101541.44;4841286;29;20136;-71
2021/10/15 00:28:23;;;;;;;20.08;9.88;;;15.90;99.90;;;16.28;86.74;101530.69;4842367;29;20042;-71
2021/10/15 00:30:51;;;;;;;16.67;9.98;;;15.90;99.90;;;16.27;86.80;101526.28;4842281;29;20393;-71
2021/10/15 00:33:20;;;;;;;20.92;10.65;;;15.90;99.90;;;16.23;86.98;101530.78;4842323;29;20050;-71
2021/10/15 00:35:49;;;;;;;16.13;10.10;;;15.90;99.90;;;16.21;87.21;101532.63;4843261;29;20419;-71
2021/10/15 00:38:18;;;;;;;18.88;10.30;;;15.90;99.90;;;16.20;87.33;101521.97;4845675;29;20050;-71
2021/10/15 00:40:47;;;;;;;18.23;9.93;;;15.90;99.90;;;16.26;87.04;101525.38;4845611;29;20476;-71
2021/10/15 00:43:17;;;;;;;17.48;10.15;;;15.90;99.90;;;16.25;87.00;101520.09;4845828;29;20124;-72
2021/10/15 00:45:45;;;;;;;19.25;10.05;;;15.90;99.90;;;16.23;87.29;101511.22;4845539;29;20141;-71
2021/10/15 00:48:14;;;;;;;20.67;11.18;;;15.90;99.90;;;16.23;87.30;101514.78;4844415;29;20058;-71
2021/10/15 00:50:44;;;;;;;18.30;10.85;;;15.90;99.90;;;16.24;87.21;101497.84;4845613;29;20054;-71
2021/10/15 00:53:13;;;;;;;24.63;10.25;;;15.90;99.90;;;15.61;87.22;101400.22;4845945;29;20128;-71
2021/10/15 00:55:44;;;;;;;25.13;11.43;;;15.90;99.90;;;16.16;87.04;101490.88;4845368;29;20078;-71
2021/10/15 00:58:13;;;;;;;20.55;10.63;;;15.90;99.90;;;16.13;87.60;101485.59;4845328;29;20496;-71
2021/10/15 01:00:43;;;;;;;23.63;10.95;;;15.80;99.90;;;16.14;87.76;101484.69;4845453;29;20136;-71
2021/10/15 01:03:12;;;;;;;17.30;11.33;;;15.80;99.90;;;16.21;87.61;101495.25;4845196;29;20133;-71
2021/10/15 01:05:40;;;;;;;19.83;10.98;;;15.80;99.90;;;16.28;87.57;101485.31;4845145;29;20848;-72
2021/10/15 01:08:08;;;;;;;20.60;10.90;;;15.90;99.90;;;16.26;87.41;101490.69;4845079;29;20050;-71
2021/10/15 01:10:37;;;;;;;16.52;10.27;;;15.90;99.90;;;16.29;87.62;101489.75;4845103;29;20073;-71
2021/10/15 01:13:05;;;;;;;24.90;12.02;;;15.90;99.90;;;16.27;87.30;101484.44;4845091;29;20054;-71
2021/10/15 01:15:34;;;;;;;17.73;10.88;;;15.90;99.90;;;16.26;87.50;101485.34;4844919;29;20069;-71
2021/10/15 01:18:11;;;;;;;21.23;11.27;;;15.90;99.90;;;16.20;87.62;101474.78;4845271;29;20122;-71
2021/10/15 01:20:43;;;;;;;19.20;11.38;;;15.80;99.90;;;16.24;87.91;101478.25;4845198;29;20121;-72
2021/10/15 01:23:11;;;;;;;19.77;11.82;;;15.80;99.90;;;16.25;87.66;101475.59;4845214;29;20046;-72
2021/10/15 01:25:39;;;;;;;24.38;12.60;;;15.90;99.90;;;16.28;87.52;101474.63;4844807;29;20472;-71
2021/10/15 01:28:08;;;;;;;22.17;11.50;;;15.90;99.90;;;16.27;87.59;101471.09;4843726;29;20101;-71
2021/10/15 01:30:36;;;;;;;18.08;11.73;;;15.90;99.90;;;16.34;87.38;101463.84;4844709;29;20107;-71
2021/10/15 01:33:04;;;;;;;17.38;10.73;;;15.90;99.90;;;16.34;87.17;101465.66;4844713;29;20417;-71
2021/10/15 01:35:33;;;;;;;19.23;10.82;;;16.00;99.90;;;16.28;87.44;101451.50;4844664;29;20407;-72
2021/10/15 01:38:02;;;;;;;18.88;10.38;;;15.90;99.90;;;16.35;87.33;101460.28;4844847;29;20050;-71
2021/10/15 01:40:31;;;;;;;23.00;11.43;;;16.00;99.90;;;16.43;87.01;101461.03;4844546;29;20050;-71
2021/10/15 01:43:00;;;;;;;20.75;9.60;;;16.10;99.90;;;16.48;86.90;101460.91;4844601;29;20050;-71
2021/10/15 01:45:31;;;;;;;17.25;9.38;;;16.10;99.90;;;16.52;86.77;101458.19;4845269;29;20074;-72
2021/10/15 01:48:00;;;;;;;20.17;10.10;;;16.10;99.90;;;16.29;86.93;101428.34;4843787;29;20553;-71
2021/10/15 01:50:29;;;;;;;18.38;9.13;;;16.10;99.90;;;16.50;86.85;101448.44;4844217;29;20527;-71
2021/10/15 01:52:59;;;;;;;15.82;8.65;;;16.10;99.90;;;16.51;86.11;101448.41;4843341;29;20053;-71
2021/10/15 01:55:28;;;;;;;19.02;7.15;;;16.10;99.90;;;16.34;83.87;101434.47;4844316;29;20109;-71
2021/10/15 01:57:57;;;;;;;14.25;7.22;;;16.10;99.90;;;16.37;82.80;101431.75;4844296;29;20054;-71
2021/10/15 02:00:25;;;;;;;14.60;6.82;;;16.10;99.90;;;16.51;81.87;101434.19;4843288;29;20504;-71
2021/10/15 02:02:54;;;;;;;13.43;6.75;;;16.20;99.90;;;16.36;81.35;101405.06;4844160;29;20045;-71
2021/10/15 02:05:22;;;;;;;14.13;7.18;;;16.10;99.90;;;16.51;80.81;101421.69;4844120;29;20527;-71
2021/10/15 02:07:51;;;;;;;13.88;6.70;;;16.20;99.90;;;16.62;80.64;101427.72;4844147;29;20102;-71
2021/10/15 02:10:21;;;;;;;17.70;7.30;;;16.30;99.90;;;16.69;80.17;101426.69;4844046;29;20125;-71
2021/10/15 02:12:52;;;;;;;;;;;16.30;99.90;;;16.82;79.28;101412.16;4844845;29;20066;-71
2021/10/15 02:15:23;;;;;;;11.52;6.50;;;16.50;99.90;;;16.86;78.86;101402.31;4844637;29;19932;-71
2021/10/15 02:17:52;;;;;;;13.48;5.95;;;16.50;99.90;;;16.77;78.19;101406.03;4844575;29;20059;-71
2021/10/15 02:20:21;;;;;;;17.90;6.38;;;16.60;99.90;;;16.95;78.17;101411.00;4843888;29;20547;-71
2021/10/15 02:22:52;;;;;;;12.57;6.88;;;16.60;99.90;;;16.94;78.16;101395.84;4844122;29;20046;-71
2021/10/15 02:25:23;;;;;;;17.25;7.55;;;16.70;99.90;;;16.90;78.60;101399.50;4844109;29;20057;-71
2021/10/15 02:27:53;;;;;;;13.82;7.05;;;16.60;99.90;;;16.87;78.36;101396.03;4843761;29;20069;-71
2021/10/15 02:30:23;;;;;;;15.90;7.20;;;16.60;99.90;;;16.90;77.88;101409.31;4842797;29;20496;-71
2021/10/15 02:32:51;;;;;;;12.90;7.40;;;16.70;99.90;;;16.87;77.92;101409.38;4843685;29;20046;-71
2021/10/15 02:35:20;;;;;;;14.68;7.00;;;16.60;99.90;;;16.85;77.72;101401.41;4843891;29;20052;-71
2021/10/15 02:37:49;;;;;;;14.60;6.25;;;16.60;99.90;;;17.00;77.59;101400.19;4843580;29;20114;-71
2021/10/15 02:40:17;;;;;;;16.83;6.90;;;16.70;99.90;;;16.53;77.40;101326.41;4843534;29;20465;-71
2021/10/15 02:42:46;;;;;;;12.23;6.07;;;16.70;99.90;;;16.94;77.67;101390.50;4842537;29;20050;-71
2021/10/15 02:45:15;;;;;;;20.02;7.32;;;16.70;99.90;;;17.01;77.66;101394.78;4843927;29;20399;-71
2021/10/15 02:47:44;;;;;;;11.60;6.53;;;16.70;99.90;;;17.10;77.09;101405.31;4843825;29;20042;-71
2021/10/15 02:50:12;;;;;;;12.35;6.20;;;16.80;99.90;;;17.07;76.75;101396.47;4843474;29;20449;-71
2021/10/15 02:52:41;;;;;;;17.92;6.88;;;16.80;99.90;;;17.05;76.82;101391.13;4843292;29;20042;-71
2021/10/15 02:55:10;;;;;;;12.30;6.78;;;16.80;99.90;;;17.08;77.15;101385.75;4842279;29;20137;-71
2021/10/15 02:57:38;;;;;;;15.50;6.30;;;16.80;99.90;;;17.00;77.12;101366.31;4843274;29;20112;-73
2021/10/15 03:00:08;;;;;;;14.00;6.68;;;16.80;99.90;;;17.03;76.76;101373.41;4842316;29;20603;-72
2021/10/15 03:02:38;;;;;;;10.90;6.50;;;16.80;99.90;;;16.98;76.41;101377.97;4843194;29;20057;-71
2021/10/15 03:05:08;;;;;;;21.70;6.65;;;16.80;99.90;;;17.01;76.47;101367.22;4843284;29;20078;-71
2021/10/15 03:07:36;;;;;;;14.02;6.78;;;16.80;99.90;;;16.95;76.50;101370.91;4843013;29;20464;-71
2021/10/15 03:10:08;;;;;;;8.88;6.07;;;16.70;99.90;;;17.00;76.48;101374.34;4843280;29;20126;-71
2021/10/15 03:12:38;;;;;;;12.63;6.20;;;16.70;99.90;;;17.02;76.26;101372.50;4843009;29;20082;-71
2021/10/15 03:15:08;;;;;;;13.20;6.28;;;16.80;99.90;;;17.05;76.35;101375.09;4843510;29;20074;-71
2021/10/15 03:17:38;;;;;;;;;;;16.80;99.90;;;17.03;76.44;101368.06;4843819;29;20386;-71
2021/10/15 03:20:08;;;;;;;15.88;6.72;;;16.80;99.90;;;17.14;76.42;101382.94;4843148;29;20015;-71
2021/10/15 03:22:37;;;;;;;18.03;6.27;;;16.90;99.90;;;17.05;76.54;101369.75;4842868;29;20504;-71
2021/10/15 03:25:07;;;;;;;16.65;6.40;;;16.90;99.90;;;17.05;76.54;101369.75;4843363;29;20298;-71
2021/10/15 03:27:35;;;;;;;12.27;6.70;;;16.80;99.90;;;17.14;76.71;101377.59;4843016;29;20050;-71
2021/10/15 03:30:06;;;;;;;19.42;6.72;;;16.90;99.90;;;17.08;76.76;101366.16;4842730;29;20129;-72
2021/10/15 03:32:35;;;;;;;14.70;6.07;;;16.80;99.90;;;17.07;76.77;101364.41;4843024;29;20096;-71
2021/10/15 03:35:06;;;;;;;16.92;6.10;;;16.80;99.90;;;17.15;76.50;101363.28;4842662;29;20052;-71
2021/10/15 03:37:34;;;;;;;18.08;6.82;;;16.90;99.90;;;17.11;76.50;101358.06;4842964;29;20140;-71
2021/10/15 03:40:04;;;;;;;16.02;5.90;;;16.90;99.90;;;16.93;76.80;101361.16;4842523;29;20137;-71
2021/10/15 03:42:33;;;;;;;16.38;6.68;;;16.70;99.90;;;16.94;76.95;101365.56;4843044;29;20096;-71
2021/10/15 03:45:04;;;;;;;;;;;16.70;99.90;;;16.95;76.82;101362.88;4843480;29;20053;-71
2021/10/15 03:47:33;;;;;;;15.77;5.70;;;16.70;99.90;;;16.98;76.69;101370.81;4842712;29;20000;-71
2021/10/15 03:50:01;;;;;;;11.25;6.00;;;16.70;99.90;;;16.97;76.61;101368.19;4840994;29;20057;-71
2021/10/15 03:52:31;;;;;;;14.77;6.45;;;16.70;99.90;;;16.85;76.80;101364.00;4842662;29;20058;-71
2021/10/15 03:55:00;;;;;;;17.10;6.13;;;16.60;99.90;;;16.66;77.13;101348.41;4842676;29;20058;-71
2021/10/15 03:57:29;;;;;;;15.98;6.57;;;16.60;99.90;;;16.94;76.61;101366.47;4842440;29;20038;-71
2021/10/15 03:59:57;;;;;;;19.17;6.80;;;16.60;99.90;;;16.83;76.71;101365.81;4842644;29;20118;-71
2021/10/15 04:02:26;;;;;;;15.98;6.57;;;16.60;99.90;;;16.73;77.23;101363.38;4842356;29;20081;-71
2021/10/15 04:04:54;;;;;;;13.38;6.35;;;16.50;99.90;;;16.74;77.60;101355.31;4842560;29;20079;-71
2021/10/15 04:07:23;;;;;;;14.90;6.10;;;16.50;99.90;;;16.65;77.56;101354.63;4841337;29;20073;-71
2021/10/15 04:09:52;;;;;;;19.38;6.40;;;16.40;99.90;;;16.76;77.55;101366.00;4842576;29;20077;-71
2021/10/15 04:12:21;;;;;;;18.03;7.33;;;16.50;99.90;;;16.76;77.60;101369.53;4845709;29;20102;-71
2021/10/15 04:14:49;;;;;;;14.20;6.10;;;16.50;99.90;;;16.75;77.61;101362.44;4846006;29;20567;-71
2021/10/15 04:17:18;;;;;;;18.65;6.40;;;16.50;99.90;;;16.77;77.69;101367.75;4845067;29;20125;-71
2021/10/15 04:19:46;;;;;;;18.83;6.53;;;16.50;99.90;;;16.76;77.75;101364.19;4845953;29;20048;-71
2021/10/15 04:22:14;;;;;;;15.85;5.85;;;16.50;99.90;;;16.76;77.99;101358.84;4846218;29;20437;-71
2021/10/15 04:24:43;;;;;;;16.33;6.10;;;16.50;99.90;;;16.77;78.13;101351.72;4846489;29;20046;-71
2021/10/15 04:27:13;;;;;;;18.90;6.13;;;16.50;99.90;;;16.70;78.29;101344.75;4846176;29;20054;-71
2021/10/15 04:29:41;;;;;;;25.95;7.28;;;16.50;99.90;;;16.64;78.13;101351.13;4845796;29;20046;-71
2021/10/15 04:32:10;;;;;;;18.83;6.38;;;16.40;99.90;;;16.66;78.27;101346.63;4844814;29;20049;-71
2021/10/15 04:34:38;;;;;;;16.98;7.03;;;16.40;99.90;;;16.57;78.06;101340.59;4846056;29;20050;-71
2021/10/15 04:37:07;;;;;;;16.60;6.63;;;16.40;99.90;;;16.31;78.24;101310.84;4845667;29;20094;-71
2021/10/15 04:39:35;;;;;;;19.48;6.50;;;16.30;99.90;;;16.54;78.07;101348.66;4845960;29;20050;-71
2021/10/15 04:42:04;;;;;;;22.52;7.50;;;16.20;99.90;;;16.40;77.95;101327.53;4844694;29;20094;-71
2021/10/15 04:44:34;;;;;;;28.05;7.35;;;16.30;99.90;;;16.49;78.23;101343.41;4845478;29;20054;-71
2021/10/15 04:47:02;;;;;;;19.80;7.25;;;16.30;99.90;;;16.60;78.65;101343.19;4846091;29;20046;-71
2021/10/15 04:49:31;;;;;;;18.70;6.93;;;16.30;99.90;;;16.61;78.42;101352.94;4845456;29;20129;-71
2021/10/15 04:51:59;;;;;;;15.30;6.28;;;16.30;99.90;;;16.52;78.53;101343.34;4845376;29;20061;-71
2021/10/15 04:54:28;;;;;;;17.60;6.82;;;16.40;99.90;;;16.40;78.83;101348.03;4845461;29;20069;-71
2021/10/15 04:56:56;;;;;;;17.20;6.60;;;16.20;99.90;;;16.53;78.71;101360.28;4845307;29;20515;-71
2021/10/15 04:59:25;;;;;;;17.23;6.55;;;16.20;99.90;;;16.51;78.70;101352.25;4845673;29;20504;-71
2021/10/15 05:01:54;;;;;;;17.40;7.18;;;16.20;99.90;;;16.42;78.76;101340.84;4845287;29;20077;-72
2021/10/15 05:04:23;;;;;;;19.48;7.50;;;16.20;99.90;;;16.49;78.62;101343.41;4844265;29;20077;-71
2021/10/15 05:06:52;;;;;;;16.75;6.93;;;16.20;99.90;;;16.49;78.48;101338.06;4845700;29;20041;-71
2021/10/15 05:09:35;;;;;;;16.05;7.55;;;16.20;99.90;;;16.34;79.12;101351.69;4844985;29;20045;-71
2021/10/15 05:12:06;;;;;;;19.95;6.60;;;16.10;99.90;;;16.37;79.00;101343.66;4845444;29;20074;-71
2021/10/15 05:14:36;;;;;;;18.20;7.07;;;16.10;99.90;;;16.32;78.73;101337.50;4845325;29;20457;-71
2021/10/15 05:17:06;;;;;;;13.93;6.38;;;16.10;99.90;;;16.27;79.01;101347.41;4844307;29;20178;-71
2021/10/15 05:19:34;;;;;;;14.90;6.95;;;16.00;99.90;;;16.35;78.88;101344.56;4845176;29;20057;-71
2021/10/15 05:22:03;;;;;;;17.85;7.20;;;16.10;99.90;;;16.39;78.98;101336.47;4844038;29;20559;-71
2021/10/15 05:24:31;;;;;;;21.75;7.22;;;16.10;99.90;;;16.24;79.45;101321.63;4844730;29;20118;-71
2021/10/15 05:27:00;;;;;;;18.42;7.00;;;16.10;99.90;;;16.49;79.13;101337.22;4845127;29;20133;-71
2021/10/15 05:29:28;;;;;;;14.27;6.55;;;16.20;99.90;;;16.40;78.96;101348.03;4845185;29;20046;-71
2021/10/15 05:31:57;;;;;;;17.30;7.20;;;16.20;99.90;;;16.19;78.80;101295.97;4844768;29;20083;-71
2021/10/15 05:34:27;;;;;;;20.67;6.90;;;16.20;99.90;;;16.42;78.81;101328.41;4845230;29;20136;-71
2021/10/15 05:36:55;;;;;;;16.17;6.25;;;16.30;99.90;;;16.34;80.22;101345.50;4844611;29;20141;-71
2021/10/15 05:39:24;;;;;;;15.25;6.60;;;16.20;99.90;;;16.26;82.27;101367.88;4844871;29;20062;-71
2021/10/15 05:41:52;;;;;;;15.65;6.30;;;16.00;99.90;;;16.11;84.08;101368.19;4844845;29;20134;-72
2021/10/15 05:44:20;;;;;;;20.83;7.05;;;15.90;99.90;;;16.11;85.33;101362.84;4843611;29;20584;-71
2021/10/15 05:46:49;;;;;;;17.48;7.05;;;15.80;99.90;;;15.96;86.01;101365.81;4844668;29;20045;-71
2021/10/15 05:49:17;;;;;;;18.83;6.63;;;15.70;99.90;;;15.86;86.86;101371.31;4844832;29;20042;-71
2021/10/15 05:51:50;;;;;;;16.75;7.18;;;15.60;99.90;;;15.84;87.15;101371.34;4842912;29;20095;-71
2021/10/15 05:54:23;;;;;;;12.52;6.55;;;15.60;99.90;;;15.52;88.26;101356.81;4844429;29;20046;-71
2021/10/15 05:57:16;;;;;;;18.52;7.18;;;15.40;99.90;;;15.47;89.71;101369.31;4844362;29;20050;-71
2021/10/15 05:59:44;;;;;;;18.00;7.43;;;15.20;99.90;;;15.11;90.55;101321.03;4844510;29;20049;-71
2021/10/15 06:02:12;;;;;;;15.23;6.97;;;15.20;99.90;;;15.28;91.85;101372.28;4844660;29;20054;-71
2021/10/15 06:16:09;;;;;;;14.23;6.53;;;15.10;99.90;;;15.11;93.87;101376.09;4805600;29;20081;-70
2021/10/15 06:18:38;;;;;;;11.18;4.68;;;15.00;99.90;;;14.84;94.40;101382.69;4836151;29;20144;-71
2021/10/15 06:21:07;;;;;;;7.22;4.60;;;14.70;99.90;;;14.94;94.87;101383.47;4843961;29;20046;-71
2021/10/15 06:23:37;;;;;;;8.88;4.10;;;14.70;99.90;;;15.25;93.48;101406.94;4843847;29;20093;-71
2021/10/15 06:26:06;;;;;;;6.63;3.28;;;15.00;99.90;;;15.41;91.91;101415.59;4844059;29;20160;-71
2021/10/15 06:28:35;;;;;;;5.28;3.28;;;15.10;99.90;;;15.27;90.50;101394.47;4843720;29;20144;-72
2021/10/15 06:31:03;;;;;;;5.28;3.75;;;15.20;99.90;;;15.49;90.01;101431.50;4843851;29;20106;-71
2021/10/15 06:33:32;;;;;;;3.92;3.30;;;15.20;99.90;;;13.51;89.64;101083.78;4843415;29;20052;-71
2021/10/15 06:36:00;;;;;;;7.45;3.75;;;15.30;99.90;;;15.50;88.94;101431.50;4842757;29;20488;-71
2021/10/15 06:38:28;;;;;;;8.45;3.35;;;15.30;99.90;;;15.57;88.64;101449.16;4843600;29;20562;-71
2021/10/15 06:40:59;;;;;;;6.60;3.35;;;15.40;99.90;;;15.66;88.41;101457.00;4843800;29;20050;-71
2021/10/15 06:43:27;;;;;;;6.60;3.13;;;15.40;99.90;;;15.68;87.87;101463.22;4843538;29;20098;-71
2021/10/15 06:45:55;;;;;;;6.78;3.30;;;15.50;99.90;;;15.55;87.37;101466.09;4843748;29;20471;-71
2021/10/15 06:48:24;;;;;;;13.52;3.95;;;15.40;99.90;;;15.42;87.15;101472.50;4842589;29;20250;-71
2021/10/15 06:50:52;;;;;;;9.85;3.40;;;15.20;99.90;;;15.52;87.12;101479.47;4843198;29;20093;-71
2021/10/15 06:53:21;;;;;;;10.50;3.72;;;15.30;99.90;;;15.21;86.34;101487.00;4843634;29;20042;-72
2021/10/15 06:55:49;;;;;;;7.57;3.47;;;15.10;99.90;;;15.08;86.41;101459.63;4843540;29;20042;-71
2021/10/15 06:58:19;;;;;;;8.68;3.70;;;15.10;99.90;;;15.23;86.31;101491.38;4843267;29;20049;-71
2021/10/15 07:00:47;;;;;;;11.20;3.80;;;15.10;99.90;;;15.28;85.75;101494.88;4843487;29;20050;-71
2021/10/15 07:03:19;;;;;;;9.45;3.63;;;15.10;99.90;;;15.28;85.38;101508.22;4843045;29;20046;-71
2021/10/15 07:05:48;;;;;;;12.32;3.72;;;15.10;99.90;;;15.21;84.71;101508.31;4842986;29;20050;-72
2021/10/15 07:08:17;;;;;;;11.77;4.47;;;15.00;99.90;;;15.32;84.35;101512.59;4842971;29;20500;-71
2021/10/15 07:10:46;;;;;;;10.85;4.32;;;15.10;99.90;;;15.39;84.04;101516.06;4842878;29;20045;-71
2021/10/15 07:13:15;;;;;;;8.52;4.10;;;15.20;99.90;;;15.45;83.57;101525.81;4843899;29;20046;-71
2021/10/15 07:15:46;;;;;;;9.82;4.53;;;15.20;99.90;;;15.46;83.14;101531.13;4843163;29;20054;-71
2021/10/15 07:18:15;;;;;;;15.50;4.07;;;15.30;99.90;;;15.51;82.49;101526.59;4842923;29;20046;-71
2021/10/15 07:20:44;;;;;;;10.70;4.22;;;15.30;99.90;;;15.53;82.18;101538.13;4843390;29;20077;-71
2021/10/15 07:23:14;;;;;;;12.35;4.45;;;15.30;99.90;;;15.54;82.21;101537.22;4842665;29;20056;-71
2021/10/15 07:26:00;;;;;;;10.40;4.40;;;15.30;99.90;;;15.49;82.23;101546.16;4842635;29;20075;-71
2021/10/15 07:28:28;;;;;;;11.98;4.57;;;15.20;99.90;;;15.44;81.26;101545.34;4842920;29;20046;-71
2021/10/15 07:30:59;;;;;;;18.30;4.80;;;15.20;99.90;;;15.37;81.48;101547.19;4843121;29;20461;-71
2021/10/15 07:33:28;;;;;;;;;;;15.10;99.90;;;15.39;81.19;101550.72;4843091;29;20050;-71
2021/10/15 07:35:56;;;;;;;14.05;4.10;;;15.20;99.90;;;15.50;80.16;101556.84;4842579;29;20015;-71
2021/10/15 07:38:24;;;;;;;9.75;4.13;;;15.20;99.90;;;15.49;79.85;101556.84;4842585;29;20050;-71
2021/10/15 07:40:53;;;;;;;14.07;4.15;;;15.30;99.90;;;15.54;79.80;101571.00;4842544;29;20049;-71
2021/10/15 07:43:22;;;;;;;11.32;4.18;;;15.30;99.90;;;15.42;79.12;101574.72;4842716;29;20054;-71
2021/10/15 07:45:50;;;;;;;9.48;4.28;;;15.20;99.90;;;15.50;79.43;101579.94;4842018;29;20094;-72
2021/10/15 07:48:20;;;;;;;12.45;4.32;;;15.20;99.90;;;15.50;78.42;101566.63;4841479;29;20057;-71
2021/10/15 07:50:48;;;;;;;16.77;4.78;;;15.40;99.90;;;15.78;78.15;101584.88;4842286;29;20050;-71
2021/10/15 07:53:17;;;;;;;11.00;4.90;;;15.50;99.90;;;15.71;78.43;101574.31;4842447;29;20574;-72
2021/10/15 07:55:46;;;;;;;12.82;4.20;;;15.50;99.90;;;15.85;77.31;101589.22;4842357;29;20066;-72
2021/10/15 07:58:14;;;;;;;13.50;4.53;;;15.60;99.90;;;15.16;77.43;101505.72;4842418;29;20451;-72
2021/10/15 08:00:43;;;;;;;15.95;4.60;;;15.50;99.90;;;15.66;77.17;101578.84;4842609;29;20397;-71
2021/10/15 08:03:12;;;;;;;12.35;4.63;;;15.50;99.90;;;15.70;77.39;101605.44;4842420;29;20477;-72
2021/10/15 08:05:43;;;;;;;11.02;4.57;;;15.40;99.90;;;15.74;77.48;101606.28;4842344;29;20068;-72
2021/10/15 08:08:11;;;;;;;12.23;4.32;;;15.40;99.90;;;15.48;78.60;101603.09;4842303;29;20061;-72
2021/10/15 08:10:43;;;;;;;11.60;4.75;;;15.20;99.90;;;15.61;78.54;101599.34;4842642;29;20412;-72
2021/10/15 08:13:13;;;;;;;11.95;4.28;;;15.40;99.90;;;15.82;78.39;101607.94;4842519;29;20057;-72
2021/10/15 08:15:42;;;;;;;10.63;4.53;;;15.50;99.90;;;15.88;78.36;101609.63;4842623;29;20050;-71
2021/10/15 08:18:10;;;;;;;14.23;4.10;;;15.60;99.90;;;15.99;78.12;101607.69;4842189;29;20136;-71
2021/10/15 08:20:39;;;;;;;13.57;4.82;;;15.70;99.90;;;16.10;78.17;101603.09;4842176;29;20053;-71
2021/10/15 08:23:12;;;;;;;18.55;5.00;;;15.80;99.90;;;16.19;77.79;101610.94;4842473;29;20049;-72
2021/10/15 08:25:59;;;;;;;14.13;4.35;;;16.00;99.90;;;16.36;76.65;101624.03;4842366;29;20061;-72
2021/10/15 08:28:47;;;;;;;12.70;4.47;;;16.10;99.90;;;16.73;76.64;101630.56;4842359;29;20042;-71
2021/10/15 08:31:18;;;;;;;11.75;3.95;;;16.40;99.90;;;16.88;75.46;101639.19;4842316;29;20106;-72
2021/10/15 08:33:46;;;;;;;12.52;4.00;;;16.60;99.90;;;16.67;73.42;101636.88;4841278;29;20058;-72
2021/10/15 08:36:15;;;;;;;11.55;4.13;;;16.40;99.90;;;16.24;73.35;101617.09;4841897;29;20077;-72
2021/10/15 08:38:47;;;;;;;13.90;4.10;;;16.20;99.90;;;16.60;73.44;101645.94;4842237;29;20137;-71
2021/10/15 08:41:20;;;;;;;25.35;5.18;;;16.30;99.90;;;16.55;71.08;101653.13;4842580;29;20110;-72
2021/10/15 08:43:49;;;;;;;13.55;4.63;;;16.30;99.90;;;16.34;71.81;101658.75;4842141;29;20045;-72
2021/10/15 08:46:17;;;;;;;10.77;4.60;;;16.10;99.90;;;16.15;71.71;101625.25;4842113;29;20045;-72
2021/10/15 08:48:46;;;;;;;12.45;4.90;;;16.10;99.90;;;16.44;71.46;101663.06;4842183;29;20404;-71
2021/10/15 08:51:16;;;;;;;11.55;3.97;;;16.20;99.90;;;16.41;71.60;101643.53;4841699;29;20149;-72
2021/10/15 08:53:50;;;;;;;15.48;4.25;;;16.30;99.90;;;15.90;71.25;101555.34;4841966;29;20106;-72
2021/10/15 08:56:18;;;;;;;13.20;5.47;;;16.40;99.90;;;16.61;70.93;101668.16;4840996;29;20497;-71
2021/10/15 08:58:49;;;;;;;17.25;5.07;;;16.40;99.90;;;16.74;70.56;101675.94;4844254;29;20049;-72
2021/10/15 09:01:18;;;;;;;15.88;4.95;;;16.50;99.90;;;16.61;70.58;101639.66;4844304;29;20066;-72
2021/10/15 09:03:47;;;;;;;15.77;5.20;;;16.60;99.90;;;16.94;70.27;101686.28;4845203;29;20046;-72
2021/10/15 09:06:16;;;;;;;16.75;4.80;;;16.70;99.90;;;17.01;68.60;101688.84;4844141;29;20113;-72
2021/10/15 09:08:53;;;;;;;17.73;4.77;;;16.70;99.90;;;17.04;67.93;101698.59;4845199;29;20056;-72
2021/10/15 09:11:31;;;;;;;14.57;5.15;;;16.80;99.90;;;16.98;68.63;101688.00;4845389;29;20473;-72
2021/10/15 09:14:15;;;;;;;17.23;4.78;;;16.80;99.90;;;16.82;64.62;101700.75;4845594;29;20061;-72
2021/10/15 09:17:00;;;;;;;15.15;4.60;;;16.70;99.90;;;16.75;63.35;101675.06;4844997;29;20053;-72
2021/10/15 09:19:31;;;;;;;17.48;4.93;;;16.70;99.90;;;16.93;61.36;101703.25;4845291;29;20054;-72
2021/10/15 09:22:17;;;;;;;12.10;4.47;;;16.80;99.90;;;16.92;59.43;101715.72;4844885;29;20132;-72
2021/10/15 09:24:53;;;;;;;15.88;4.60;;;16.80;99.90;;;17.07;59.50;101718.13;4844786;29;20054;-72
2021/10/15 09:27:34;;;;;;;13.82;3.90;;;16.90;99.90;;;17.33;58.01;101716.78;4844855;29;20054;-72
2021/10/15 09:30:06;;;;;;;12.40;4.50;;;17.10;99.90;;;17.81;57.46;101740.84;4844646;29;20049;-72
2021/10/15 09:32:38;;;;;;;11.80;4.25;;;17.50;99.90;;;18.22;55.38;101720.34;4844978;29;20076;-72
2021/10/15 09:35:09;;;;;;;8.30;4.13;;;17.90;99.90;;;18.29;54.35;101693.38;4844705;29;20042;-71
2021/10/15 09:37:40;;;;;;;10.93;4.28;;;18.20;99.90;;;18.81;52.72;101723.41;4844884;29;20117;-71
2021/10/15 09:40:13;;;;;;;11.73;3.78;;;18.60;99.90;;;19.31;52.57;101729.31;4844635;29;20042;-72
2021/10/15 09:42:44;;;;;;;10.93;3.72;;;19.00;99.90;;;19.80;51.36;101743.19;4844565;29;20110;-72
2021/10/15 09:45:16;;;;;;;12.50;4.18;;;19.50;99.90;;;19.49;49.82;101718.97;4843462;29;20050;-71
2021/10/15 09:47:46;;;;;;;11.85;4.47;;;19.40;99.90;;;20.08;52.44;101752.19;4843449;29;20054;-71
2021/10/15 09:50:17;;;;;;;10.05;4.03;;;19.80;99.90;;;20.43;49.97;101754.75;4844546;29;20050;-72
2021/10/15 09:52:49;;;;;;;16.92;3.90;;;20.20;99.90;;;20.54;49.17;101749.91;4843029;29;20069;-71
2021/10/15 09:55:22;;;;;;;12.65;4.22;;;20.30;99.90;;;20.76;50.21;101752.81;4844381;29;20054;-72
2021/10/15 09:57:56;;;;;;;9.45;4.05;;;20.50;99.90;;;20.60;49.33;101760.47;4844343;29;20045;-72
2021/10/15 10:00:30;;;;;;;9.27;3.58;;;20.40;99.90;;;20.99;49.93;101752.94;4844300;29;20511;-72
2021/10/15 10:02:59;;;;;;;10.45;3.50;;;20.70;99.90;;;21.11;47.71;101754.38;4844256;29;20091;-71
2021/10/15 10:05:28;;;;;;;13.98;4.30;;;21.00;99.90;;;21.40;48.30;101765.03;4844389;29;20461;-72
2021/10/15 10:07:58;;;;;;;11.30;3.80;;;21.20;99.90;;;21.04;47.14;101766.28;4843914;29;20068;-72
2021/10/15 10:10:31;;;;;;;12.68;4.43;;;21.00;99.90;;;21.32;49.75;101759.03;4844061;29;20057;-72
2021/10/15 10:13:00;;;;;;;10.93;4.32;;;21.20;99.90;;;21.45;47.34;101771.13;4844284;29;20085;-72
2021/10/15 10:15:32;;;;;;;13.48;4.65;;;21.30;99.90;;;21.54;47.40;101760.91;4844373;29;20058;-72
2021/10/15 10:18:12;;;;;;;9.35;3.95;;;21.40;99.90;;;21.85;49.01;101771.50;4842887;29;20453;-72
2021/10/15 10:20:47;;;;;;;11.55;3.80;;;21.60;99.90;;;21.77;47.32;101773.56;4844192;29;20050;-72
2021/10/15 10:23:24;;;;;;;10.27;3.88;;;21.60;99.90;;;21.46;46.83;101773.78;4844146;29;20054;-72
2021/10/15 10:25:58;;;;;;;13.90;3.97;;;21.40;99.90;;;21.24;46.69;101778.13;4843823;29;20488;-72
2021/10/15 10:28:28;;;;;;;10.60;3.83;;;21.10;99.90;;;21.38;47.09;101780.34;4843808;29;20457;-73
2021/10/15 10:30:59;;;;;;;9.48;3.55;;;21.20;99.90;;;21.45;46.31;101776.50;4843670;29;20084;-73